X  Close Metar Aviation Weather Data     EHKD De Kooy Airport
Temperature
45°F Temperature
36°F Dewpoint
71% Humidity



Wind
12 MPH
19 KM/H
5 M/S
10 KTS



350°
N
Current Conditions

Partly Cloudy Partly Cloudy
Pressure 1017.95 (hPa) - 30.06 (inHg)
Visibility 6 (mile) - 9.7 (km)
Airport
Airport-code EHKD

Location: De Kooy Airport
Distance: 34 (mi)

Metar:
EHKD 200311Z AUTO 35010KT 290V030 9999 FEW024 SCT027 BKN032 07/02 Q1018 BLU

Time: 20-04-2024 05:11 CEST